Time;durP1;ratioP1;P1;durP2;ratioP2;P2;SDS_P1;SDS_P2;PMS_P1;PMS_P2;Temp;Humidity;BMP_temperature;BMP_pressure;BME280_temperature;BME280_humidity;BME280_pressure;Samples;Min_cycle;Max_cycle;Signal;HPM_P1;HPM_P2
2024/01/25 00:01:29;;;;;;;;;;;;;;;;;;52983;1253;1058724;-80
2024/01/25 00:03:55;;;;;;;;;;;;;;;;;;52951;1252;1005508;-80
2024/01/25 00:06:22;;;;;;;;;;;;;;;;;;52957;1256;1038720;-80
2024/01/25 00:08:48;;;;;;;;;;;;;;;;;;52965;1255;1003761;-80
2024/01/25 00:11:15;;;;;;;;;;;;;;;;;;52992;1253;1045816;-81
2024/01/25 00:13:42;;;;;;;;;;;;;;;;;;53018;1252;1004813;-80
2024/01/25 00:16:08;;;;;;;;;;;;;;;;;;53007;1251;1060363;-80
2024/01/25 00:18:35;;;;;;;;;;;;;;;;;;53490;1253;1004748;-80
2024/01/25 00:21:01;;;;;;;;;;;;;;;;;;53491;1251;1057500;-80
2024/01/25 00:23:28;;;;;;;;;;;;;;;;;;53043;1251;1004981;-80
2024/01/25 00:25:58;;;;;;;;;;;;;;;;;;53006;1255;1058107;-80
2024/01/25 00:28:24;;;;;;;;;;;;;;;;;;52980;1253;1004723;-82
2024/01/25 00:30:51;;;;;;;;;;;;;;;;;;52987;1253;1005309;-81
2024/01/25 00:33:17;;;;;;;;;;;;;;;;;;53015;1251;1038504;-80
2024/01/25 00:35:44;;;;;;;;;;;;;;;;;;52919;1253;1005547;-80
2024/01/25 00:38:10;;;;;;;;;;;;;;;;;;52929;1253;1046112;-80
2024/01/25 00:40:36;;;;;;;;;;;;;;;;;;52883;1253;1003568;-80
2024/01/25 00:43:03;;;;;;;;;;;;;;;;;;52977;1251;1061278;-80
2024/01/25 00:45:29;;;;;;;;;;;;;;;;;;52953;1253;1005189;-80
2024/01/25 00:47:56;;;;;;;;;;;;;;;;;;52959;1253;1056881;-80
2024/01/25 00:50:23;;;;;;;;;;;;;;;;;;52921;1253;1004815;-80
2024/01/25 00:52:50;;;;;;;;;;;;;;;;;;52992;1252;1058870;-81
2024/01/25 00:55:16;;;;;;;;;;;;;;;;;;52952;1253;1005561;-80
2024/01/25 00:57:43;;;;;;;;;;;;;;;;;;53017;1252;1038494;-80
2024/01/25 01:00:09;;;;;;;;;;;;;;;;;;54138;1253;1003289;-80
2024/01/25 01:02:36;;;;;;;;;;;;;;;;;;54161;1253;1045640;-80
2024/01/25 01:05:02;;;;;;;;;;;;;;;;;;54163;1251;1003118;-80
2024/01/25 01:07:29;;;;;;;;;;;;;;;;;;54160;1253;1060318;-80
2024/01/25 01:09:55;;;;;;;;;;;;;;;;;;54174;1252;1003411;-80
2024/01/25 01:12:21;;;;;;;;;;;;;;;;;;54166;1251;1056459;-80
2024/01/25 01:14:48;;;;;;;;;;;;;;;;;;54157;1255;1003536;-80
2024/01/25 01:17:14;;;;;;;;;;;;;;;;;;53412;1252;1058031;-80
2024/01/25 01:19:41;;;;;;;;;;;;;;;;;;52987;1254;1005455;-79
2024/01/25 01:22:07;;;;;;;;;;;;;;;;;;52996;1251;1038341;-80
2024/01/25 01:24:33;;;;;;;;;;;;;;;;;;53008;1251;1005537;-80
2024/01/25 01:27:00;;;;;;;;;;;;;;;;;;53008;1256;1046642;-80
2024/01/25 01:29:26;;;;;;;;;;;;;;;;;;52944;1253;1005168;-80
2024/01/25 01:31:53;;;;;;;;;;;;;;;;;;52973;1255;1062123;-80
2024/01/25 01:34:19;;;;;;;;;;;;;;;;;;53003;1253;1004918;-80
2024/01/25 01:36:46;;;;;;;;;;;;;;;;;;52949;1256;1056314;-80
2024/01/25 01:39:12;;;;;;;;;;;;;;;;;;52931;1255;1005491;-79
2024/01/25 01:41:39;;;;;;;;;;;;;;;;;;53136;1253;1058961;-80
2024/01/25 01:44:05;;;;;;;;;;;;;;;;;;54146;1252;1003198;-80
2024/01/25 01:46:32;;;;;;;;;;;;;;;;;;54132;1252;1039418;-80
2024/01/25 01:48:59;;;;;;;;;;;;;;;;;;54179;1256;1003326;-80
2024/01/25 01:51:25;;;;;;;;;;;;;;;;;;53320;1254;1045460;-80
2024/01/25 01:53:52;;;;;;;;;;;;;;;;;;53006;1253;1005139;-80
2024/01/25 01:56:18;;;;;;;;;;;;;;;;;;53164;1251;1060732;-79
2024/01/25 01:58:45;;;;;;;;;;;;;;;;;;52984;1251;1004917;-80
2024/01/25 02:01:11;;;;;;;;;;;;;;;;;;53000;1252;1056397;-80
2024/01/25 02:03:37;;;;;;;;;;;;;;;;;;53061;1251;1003685;-80
2024/01/25 02:06:04;;;;;;;;;;;;;;;;;;52964;1256;1059578;-80
2024/01/25 02:08:30;;;;;;;;;;;;;;;;;;52968;1252;1003784;-80
2024/01/25 02:10:57;;;;;;;;;;;;;;;;;;53010;1253;1038440;-79
2024/01/25 02:13:23;;;;;;;;;;;;;;;;;;53046;1254;1005326;-80
2024/01/25 02:15:50;;;;;;;;;;;;;;;;;;52985;1255;1046403;-80
2024/01/25 02:18:16;;;;;;;;;;;;;;;;;;52995;1251;1005556;-80
2024/01/25 02:20:43;;;;;;;;;;;;;;;;;;53027;1252;1060958;-80
2024/01/25 02:23:09;;;;;;;;;;;;;;;;;;53006;1252;1005208;-80
2024/01/25 02:25:36;;;;;;;;;;;;;;;;;;53026;1253;1056573;-80
2024/01/25 02:28:02;;;;;;;;;;;;;;;;;;53015;1256;1004859;-80
2024/01/25 02:30:29;;;;;;;;;;;;;;;;;;52995;1251;1058958;-80
2024/01/25 02:32:55;;;;;;;;;;;;;;;;;;53037;1253;1005181;-80
2024/01/25 02:35:22;;;;;;;;;;;;;;;;;;53022;1254;1038179;-80
2024/01/25 02:37:50;;;;;;;;;;;;;;;;;;53004;1255;1004982;-80
2024/01/25 02:40:17;;;;;;;;;;;;;;;;;;52979;1251;1045401;-80
2024/01/25 02:42:43;;;;;;;;;;;;;;;;;;53049;1251;1005263;-80
2024/01/25 02:45:10;;;;;;;;;;;;;;;;;;53056;1251;1061438;-80
2024/01/25 02:47:36;;;;;;;;;;;;;;;;;;53636;1251;1005311;-80
2024/01/25 02:50:02;;;;;;;;;;;;;;;;;;52996;1251;1056255;-80
2024/01/25 02:52:29;;;;;;;;;;;;;;;;;;53066;1253;1004652;-80
2024/01/25 02:54:55;;;;;;;;;;;;;;;;;;53035;1252;1058850;-80
2024/01/25 02:57:22;;;;;;;;;;;;;;;;;;52961;1255;1005641;-80
2024/01/25 02:59:49;;;;;;;;;;;;;;;;;;53976;1251;1037970;-80
2024/01/25 03:02:18;;;;;;;;;;;;;;;;;;52957;1256;1005582;-80
2024/01/25 03:04:45;;;;;;;;;;;;;;;;;;52914;1255;1045169;-80
2024/01/25 03:07:11;;;;;;;;;;;;;;;;;;53003;1254;1005161;-80
2024/01/25 03:09:38;;;;;;;;;;;;;;;;;;52934;1251;1061033;-80
2024/01/25 03:12:04;;;;;;;;;;;;;;;;;;52921;1251;1004817;-80
2024/01/25 03:14:31;;;;;;;;;;;;;;;;;;54002;1254;1056727;-80
2024/01/25 03:16:57;;;;;;;;;;;;;;;;;;54230;1255;1003541;-80
2024/01/25 03:19:23;;;;;;;;;;;;;;;;;;53813;1251;1057552;-80
2024/01/25 03:21:50;;;;;;;;;;;;;;;;;;53310;1254;1005247;-80
2024/01/25 03:24:16;;;;;;;;;;;;;;;;;;53206;1255;1039073;-80
2024/01/25 03:26:43;;;;;;;;;;;;;;;;;;53077;1253;1004656;-80
2024/01/25 03:29:09;;;;;;;;;;;;;;;;;;53006;1255;1045606;-80
2024/01/25 03:31:37;;;;;;;;;;;;;;;;;;53014;1255;1005469;-79
2024/01/25 03:34:04;;;;;;;;;;;;;;;;;;53020;1254;1064073;-80
2024/01/25 03:36:31;;;;;;;;;;;;;;;;;;53018;1252;1005573;-80
2024/01/25 03:38:58;;;;;;;;;;;;;;;;;;52981;1253;1057101;-80
2024/01/25 03:41:24;;;;;;;;;;;;;;;;;;52949;1254;1005036;-80
2024/01/25 03:43:51;;;;;;;;;;;;;;;;;;52896;1255;1058904;-80
2024/01/25 03:46:18;;;;;;;;;;;;;;;;;;52966;1255;1005170;-80
2024/01/25 03:48:44;;;;;;;;;;;;;;;;;;53672;1253;1038740;-80
2024/01/25 03:51:10;;;;;;;;;;;;;;;;;;54144;1255;1003680;-80
2024/01/25 03:53:37;;;;;;;;;;;;;;;;;;54182;1254;1046438;-80
2024/01/25 03:56:03;;;;;;;;;;;;;;;;;;54135;1254;1003114;-80
2024/01/25 03:58:30;;;;;;;;;;;;;;;;;;54156;1253;1060909;-80
2024/01/25 04:00:56;;;;;;;;;;;;;;;;;;54158;1254;1003553;-80
2024/01/25 04:03:23;;;;;;;;;;;;;;;;;;54104;1256;1057213;-80
2024/01/25 04:05:49;;;;;;;;;;;;;;;;;;53070;1253;1005159;-80
2024/01/25 04:08:16;;;;;;;;;;;;;;;;;;52952;1254;1058179;-80
2024/01/25 04:10:42;;;;;;;;;;;;;;;;;;52904;1255;1005538;-80
2024/01/25 04:13:09;;;;;;;;;;;;;;;;;;52966;1252;1037901;-80
2024/01/25 04:15:35;;;;;;;;;;;;;;;;;;53081;1251;1005634;-79
2024/01/25 04:18:02;;;;;;;;;;;;;;;;;;53013;1251;1045791;-80
2024/01/25 04:20:29;;;;;;;;;;;;;;;;;;53001;1251;1003870;-80
2024/01/25 04:22:55;;;;;;;;;;;;;;;;;;53042;1251;1061651;-80
2024/01/25 04:25:22;;;;;;;;;;;;;;;;;;53036;1251;1005624;-80
2024/01/25 04:27:48;;;;;;;;;;;;;;;;;;52938;1251;1056375;-80
2024/01/25 04:30:15;;;;;;;;;;;;;;;;;;52929;1253;1005580;-80
2024/01/25 04:32:41;;;;;;;;;;;;;;;;;;53010;1255;1058029;-80
2024/01/25 04:35:08;;;;;;;;;;;;;;;;;;52981;1255;1005645;-80
2024/01/25 04:37:34;;;;;;;;;;;;;;;;;;52979;1256;1039410;-80
2024/01/25 04:40:00;;;;;;;;;;;;;;;;;;52946;1254;1005404;-80
2024/01/25 04:42:27;;;;;;;;;;;;;;;;;;52992;1255;1045872;-80
2024/01/25 04:44:54;;;;;;;;;;;;;;;;;;53058;1255;1005590;-80
2024/01/25 04:47:20;;;;;;;;;;;;;;;;;;52952;1255;1061138;-80
2024/01/25 04:49:47;;;;;;;;;;;;;;;;;;52940;1251;1005584;-80
2024/01/25 04:52:13;;;;;;;;;;;;;;;;;;52971;1255;1056950;-80
2024/01/25 04:54:40;;;;;;;;;;;;;;;;;;52976;1257;1005676;-80
2024/01/25 04:57:06;;;;;;;;;;;;;;;;;;52978;1254;1058484;-80
2024/01/25 04:59:33;;;;;;;;;;;;;;;;;;52913;1257;1004696;-80
2024/01/25 05:01:59;;;;;;;;;;;;;;;;;;52985;1254;1039519;-80
2024/01/25 05:04:26;;;;;;;;;;;;;;;;;;52981;1254;1003782;-80
2024/01/25 05:06:53;;;;;;;;;;;;;;;;;;52957;1256;1045266;-80
2024/01/25 05:09:19;;;;;;;;;;;;;;;;;;53293;1252;1005243;-80
2024/01/25 05:11:45;;;;;;;;;;;;;;;;;;53001;1254;1061831;-80
2024/01/25 05:14:12;;;;;;;;;;;;;;;;;;53003;1253;1004831;-80
2024/01/25 05:16:39;;;;;;;;;;;;;;;;;;52970;1254;1057217;-81
2024/01/25 05:19:05;;;;;;;;;;;;;;;;;;53045;1251;1004844;-80
2024/01/25 05:21:32;;;;;;;;;;;;;;;;;;53034;1255;1057815;-80
2024/01/25 05:23:58;;;;;;;;;;;;;;;;;;52960;1251;1005289;-80
2024/01/25 05:26:25;;;;;;;;;;;;;;;;;;52992;1253;1039234;-80
2024/01/25 05:28:51;;;;;;;;;;;;;;;;;;53021;1254;1005433;-80
2024/01/25 05:31:18;;;;;;;;;;;;;;;;;;53061;1253;1045427;-80
2024/01/25 05:33:44;;;;;;;;;;;;;;;;;;52955;1254;1005455;-80
2024/01/25 05:36:12;;;;;;;;;;;;;;;;;;52963;1251;1061284;-80
2024/01/25 05:38:38;;;;;;;;;;;;;;;;;;52995;1254;1004834;-80
2024/01/25 05:41:04;;;;;;;;;;;;;;;;;;52908;1255;1057484;-80
2024/01/25 05:43:31;;;;;;;;;;;;;;;;;;52995;1256;1005146;-80
2024/01/25 05:45:57;;;;;;;;;;;;;;;;;;52955;1253;1058055;-80
2024/01/25 05:48:24;;;;;;;;;;;;;;;;;;52974;1254;1005224;-80
2024/01/25 05:50:51;;;;;;;;;;;;;;;;;;52951;1256;1038892;-80
2024/01/25 05:53:19;;;;;;;;;;;;;;;;;;52994;1254;1005152;-80
2024/01/25 05:55:46;;;;;;;;;;;;;;;;;;52998;1252;1046440;-80
2024/01/25 05:58:12;;;;;;;;;;;;;;;;;;53001;1256;1003670;-80
2024/01/25 06:00:39;;;;;;;;;;;;;;;;;;53035;1257;1063313;-80
2024/01/25 06:03:05;;;;;;;;;;;;;;;;;;53061;1251;1005484;-79
2024/01/25 06:05:32;;;;;;;;;;;;;;;;;;53095;1251;1057536;-80
2024/01/25 06:07:59;;;;;;;;;;;;;;;;;;53041;1251;1003663;-80
2024/01/25 06:10:25;;;;;;;;;;;;;;;;;;53092;1255;1058490;-80
2024/01/25 06:12:51;;;;;;;;;;;;;;;;;;53053;1251;1005118;-80
2024/01/25 06:15:18;;;;;;;;;;;;;;;;;;53007;1251;1038768;-80
2024/01/25 06:17:44;;;;;;;;;;;;;;;;;;53633;1251;1004674;-80
2024/01/25 06:20:11;;;;;;;;;;;;;;;;;;54165;1251;1045340;-80
2024/01/25 06:22:37;;;;;;;;;;;;;;;;;;54147;1251;1003140;-80
2024/01/25 06:25:05;;;;;;;;;;;;;;;;;;54164;1250;1060682;-80
2024/01/25 06:27:31;;;;;;;;;;;;;;;;;;54145;1251;1003430;-80
2024/01/25 06:29:58;;;;;;;;;;;;;;;;;;54158;1254;1057530;-80
2024/01/25 06:32:24;;;;;;;;;;;;;;;;;;54144;1254;1003327;-80
2024/01/25 06:34:51;;;;;;;;;;;;;;;;;;53981;1251;1057284;-80
2024/01/25 06:37:18;;;;;;;;;;;;;;;;;;54141;1251;1003141;-80
2024/01/25 06:39:45;;;;;;;;;;;;;;;;;;54145;1251;1039436;-80
2024/01/25 06:42:11;;;;;;;;;;;;;;;;;;54150;1251;1003433;-80
2024/01/25 06:44:38;;;;;;;;;;;;;;;;;;54142;1251;1046160;-80
2024/01/25 06:47:04;;;;;;;;;;;;;;;;;;54169;1251;1003119;-80
2024/01/25 06:49:30;;;;;;;;;;;;;;;;;;54142;1251;1060467;-80
2024/01/25 06:51:57;;;;;;;;;;;;;;;;;;54226;1251;1003405;-80
2024/01/25 06:54:23;;;;;;;;;;;;;;;;;;53197;1251;1057386;-80
2024/01/25 06:56:51;;;;;;;;;;;;;;;;;;53216;1251;1004804;-80
2024/01/25 06:59:17;;;;;;;;;;;;;;;;;;53753;1250;1057753;-80
2024/01/25 07:01:44;;;;;;;;;;;;;;;;;;53233;1250;1005380;-80
2024/01/25 07:04:10;;;;;;;;;;;;;;;;;;53511;1251;1038588;-79
2024/01/25 07:06:37;;;;;;;;;;;;;;;;;;53221;1251;1003807;-80
2024/01/25 07:09:04;;;;;;;;;;;;;;;;;;53394;1251;1045264;-80
2024/01/25 07:11:31;;;;;;;;;;;;;;;;;;53323;1253;1004635;-80
2024/01/25 07:13:57;;;;;;;;;;;;;;;;;;53524;1251;1061676;-81
2024/01/25 07:16:24;;;;;;;;;;;;;;;;;;54148;1251;1003602;-80
2024/01/25 07:18:50;;;;;;;;;;;;;;;;;;54145;1251;1056612;-80
2024/01/25 07:21:17;;;;;;;;;;;;;;;;;;54097;1251;1003525;-79
2024/01/25 07:23:43;;;;;;;;;;;;;;;;;;53416;1255;1057911;-80
2024/01/25 07:26:10;;;;;;;;;;;;;;;;;;54092;1251;1003513;-80
2024/01/25 07:28:37;;;;;;;;;;;;;;;;;;54052;1257;1038029;-80
2024/01/25 07:31:03;;;;;;;;;;;;;;;;;;54122;1251;1003427;-80
2024/01/25 07:33:30;;;;;;;;;;;;;;;;;;54116;1254;1045488;-80
2024/01/25 07:35:58;;;;;;;;;;;;;;;;;;54127;1252;1003167;-79
2024/01/25 07:38:24;;;;;;;;;;;;;;;;;;54098;1251;1061384;-80
2024/01/25 07:40:52;;;;;;;;;;;;;;;;;;54153;1251;1003240;-80
2024/01/25 07:43:19;;;;;;;;;;;;;;;;;;53947;1254;1057200;-80
2024/01/25 07:45:45;;;;;;;;;;;;;;;;;;53154;1251;1005496;-79
2024/01/25 07:48:12;;;;;;;;;;;;;;;;;;53097;1255;1058936;-79
2024/01/25 07:50:38;;;;;;;;;;;;;;;;;;53059;1254;1005178;-80
2024/01/25 07:53:04;;;;;;;;;;;;;;;;;;53077;1253;1038720;-80
2024/01/25 07:55:31;;;;;;;;;;;;;;;;;;53098;1251;1005253;-80
2024/01/25 07:57:57;;;;;;;;;;;;;;;;;;53162;1251;1046095;-80
2024/01/25 08:00:24;;;;;;;;;;;;;;;;;;53043;1251;1005741;-81
2024/01/25 08:02:51;;;;;;;;;;;;;;;;;;53100;1253;1060937;-80
2024/01/25 08:05:17;;;;;;;;;;;;;;;;;;53073;1251;1003804;-80
2024/01/25 08:07:44;;;;;;;;;;;;;;;;;;53077;1256;1056786;-80
2024/01/25 08:10:10;;;;;;;;;;;;;;;;;;53122;1251;1004664;-79
2024/01/25 08:12:39;;;;;;;;;;;;;;;;;;53188;1253;1058576;-80
2024/01/25 08:15:05;;;;;;;;;;;;;;;;;;53108;1254;1005269;-80
2024/01/25 08:17:32;;;;;;;;;;;;;;;;;;53120;1255;1004802;-80
2024/01/25 08:19:58;;;;;;;;;;;;;;;;;;53169;1251;1039548;-80
2024/01/25 08:22:25;;;;;;;;;;;;;;;;;;53007;1251;1005242;-79
2024/01/25 08:24:51;;;;;;;;;;;;;;;;;;53086;1253;1045747;-80
2024/01/25 08:27:18;;;;;;;;;;;;;;;;;;53065;1251;1005535;-80
2024/01/25 08:29:44;;;;;;;;;;;;;;;;;;53084;1251;1060969;-80
2024/01/25 08:32:11;;;;;;;;;;;;;;;;;;53139;1255;1005779;-80
2024/01/25 08:34:37;;;;;;;;;;;;;;;;;;53104;1253;1056943;-80
2024/01/25 08:37:04;;;;;;;;;;;;;;;;;;53078;1252;1005520;-79
2024/01/25 08:39:31;;;;;;;;;;;;;;;;;;53152;1255;1058659;-80
2024/01/25 08:42:00;;;;;;;;;;;;;;;;;;53075;1255;1005352;-80
2024/01/25 08:44:27;;;;;;;;;;;;;;;;;;53162;1255;1038126;-80
2024/01/25 08:46:53;;;;;;;;;;;;;;;;;;53114;1255;1004855;-80
2024/01/25 08:49:20;;;;;;;;;;;;;;;;;;53706;1251;1045707;-80
2024/01/25 08:51:46;;;;;;;;;;;;;;;;;;54112;1256;1003412;-80
2024/01/25 08:54:13;;;;;;;;;;;;;;;;;;54168;1250;1060403;-80
2024/01/25 08:56:39;;;;;;;;;;;;;;;;;;54115;1252;1003288;-81
2024/01/25 08:59:07;;;;;;;;;;;;;;;;;;54115;1250;1057469;-80
2024/01/25 09:01:33;;;;;;;;;;;;;;;;;;54101;1251;1003121;-80
2024/01/25 09:04:02;;;;;;;;;;;;;;;;;;54085;1256;1057840;-80
2024/01/25 09:06:29;;;;;;;;;;;;;;;;;;54075;1253;1003298;-80
2024/01/25 09:08:56;;;;;;;;;;;;;;;;;;54105;1252;1003231;-80
2024/01/25 09:11:22;;;;;;;;;;;;;;;;;;54107;1251;1038670;-80
2024/01/25 09:13:49;;;;;;;;;;;;;;;;;;54116;1255;1003352;-80
2024/01/25 09:16:15;;;;;;;;;;;;;;;;;;54109;1251;1045000;-80
2024/01/25 09:18:41;;;;;;;;;;;;;;;;;;53080;1251;1005331;-80
2024/01/25 09:21:08;;;;;;;;;;;;;;;;;;52986;1253;1060408;-80
2024/01/25 09:23:35;;;;;;;;;;;;;;;;;;53032;1251;1004954;-79
2024/01/25 09:26:01;;;;;;;;;;;;;;;;;;53104;1251;1057113;-79
2024/01/25 09:28:28;;;;;;;;;;;;;;;;;;53024;1251;1004674;-80
2024/01/25 09:30:55;;;;;;;;;;;;;;;;;;52996;1252;1059224;-80
2024/01/25 09:33:21;;;;;;;;;;;;;;;;;;53029;1255;1005447;-80
2024/01/25 09:35:48;;;;;;;;;;;;;;;;;;52894;1252;1038791;-80
2024/01/25 09:38:15;;;;;;;;;;;;;;;;;;53132;1251;1004806;-80
2024/01/25 09:40:41;;;;;;;;;;;;;;;;;;53095;1251;1046742;-80
2024/01/25 09:43:08;;;;;;;;;;;;;;;;;;52919;1251;1005310;-80
2024/01/25 09:45:34;;;;;;;;;;;;;;;;;;53129;1251;1061044;-81
2024/01/25 09:48:04;;;;;;;;;;;;;;;;;;53109;1251;1004846;-80
2024/01/25 09:50:33;;;;;;;;;;;;;;;;;;52981;1253;1057905;-80
2024/01/25 09:53:00;;;;;;;;;;;;;;;;;;53083;1251;1004904;-80
2024/01/25 09:55:26;;;;;;;;;;;;;;;;;;53010;1251;1004778;-79
2024/01/25 09:57:52;;;;;;;;;;;;;;;;;;53136;1255;1057523;-80
2024/01/25 10:00:20;;;;;;;;;;;;;;;;;;53029;1253;1004638;-80
2024/01/25 10:02:46;;;;;;;;;;;;;;;;;;53046;1253;1040852;-80
2024/01/25 10:05:13;;;;;;;;;;;;;;;;;;53155;1251;1005710;-80
2024/01/25 10:07:39;;;;;;;;;;;;;;;;;;53040;1253;1045861;-80
2024/01/25 10:10:06;;;;;;;;;;;;;;;;;;52979;1253;1004908;-80
2024/01/25 10:12:32;;;;;;;;;;;;;;;;;;53231;1253;1060918;-81
2024/01/25 10:14:59;;;;;;;;;;;;;;;;;;53202;1252;1004834;-80
2024/01/25 10:17:25;;;;;;;;;;;;;;;;;;53080;1251;1057569;-80
2024/01/25 10:19:52;;;;;;;;;;;;;;;;;;52979;1251;1005048;-80
2024/01/25 10:22:19;;;;;;;;;;;;;;;;;;53032;1254;1058817;-80
2024/01/25 10:24:46;;;;;;;;;;;;;;;;;;52957;1251;1005112;-80
2024/01/25 10:27:12;;;;;;;;;;;;;;;;;;52979;1251;1038281;-80
2024/01/25 10:29:39;;;;;;;;;;;;;;;;;;53046;1254;1004883;-80
2024/01/25 10:32:05;;;;;;;;;;;;;;;;;;53052;1251;1045760;-80
2024/01/25 10:34:32;;;;;;;;;;;;;;;;;;53039;1251;1005707;-79
2024/01/25 10:36:58;;;;;;;;;;;;;;;;;;53141;1251;1061367;-80
2024/01/25 10:39:25;;;;;;;;;;;;;;;;;;53041;1251;1005304;-79
2024/01/25 10:41:52;;;;;;;;;;;;;;;;;;53054;1251;1057157;-80
2024/01/25 10:44:22;;;;;;;;;;;;;;;;;;53087;1251;1004380;-80
2024/01/25 10:46:48;;;;;;;;;;;;;;;;;;53045;1252;1058193;-80
2024/01/25 10:49:15;;;;;;;;;;;;;;;;;;53117;1254;1005350;-80
2024/01/25 10:51:41;;;;;;;;;;;;;;;;;;53098;1251;1038862;-80
2024/01/25 10:54:08;;;;;;;;;;;;;;;;;;53061;1251;1005266;-80
2024/01/25 10:56:34;;;;;;;;;;;;;;;;;;53038;1251;1045298;-80
2024/01/25 10:59:01;;;;;;;;;;;;;;;;;;53149;1251;1005502;-80
2024/01/25 11:01:27;;;;;;;;;;;;;;;;;;53101;1251;1060543;-80
2024/01/25 11:03:54;;;;;;;;;;;;;;;;;;53031;1251;1004585;-80
2024/01/25 11:06:20;;;;;;;;;;;;;;;;;;53007;1251;1057200;-80
2024/01/25 11:08:47;;;;;;;;;;;;;;;;;;53707;1253;1005512;-80
2024/01/25 11:11:13;;;;;;;;;;;;;;;;;;52928;1254;1058194;-80
2024/01/25 11:13:40;;;;;;;;;;;;;;;;;;52977;1251;1004844;-79
2024/01/25 11:16:06;;;;;;;;;;;;;;;;;;53031;1251;1038417;-79
2024/01/25 11:18:33;;;;;;;;;;;;;;;;;;53195;1253;1005745;-80
2024/01/25 11:21:00;;;;;;;;;;;;;;;;;;53168;1251;1046066;-80
2024/01/25 11:23:26;;;;;;;;;;;;;;;;;;53155;1254;1005425;-80
2024/01/25 11:25:53;;;;;;;;;;;;;;;;;;53143;1251;1063842;-79
2024/01/25 11:28:19;;;;;;;;;;;;;;;;;;53154;1250;1005425;-80
2024/01/25 11:30:47;;;;;;;;;;;;;;;;;;53066;1251;1057547;-80
2024/01/25 11:33:14;;;;;;;;;;;;;;;;;;53075;1251;1004845;-80
2024/01/25 11:35:42;;;;;;;;;;;;;;;;;;53065;1254;1058190;-79
2024/01/25 11:38:09;;;;;;;;;;;;;;;;;;53097;1251;1005305;-80
2024/01/25 11:40:35;;;;;;;;;;;;;;;;;;53031;1251;1038242;-80
2024/01/25 11:43:02;;;;;;;;;;;;;;;;;;53251;1254;1005475;-79
2024/01/25 11:45:29;;;;;;;;;;;;;;;;;;53252;1251;1045189;-80
2024/01/25 11:47:55;;;;;;;;;;;;;;;;;;53361;1251;1004999;-80
2024/01/25 11:50:22;;;;;;;;;;;;;;;;;;53238;1251;1061442;-80
2024/01/25 11:52:50;;;;;;;;;;;;;;;;;;53038;1251;1005323;-80
2024/01/25 11:55:16;;;;;;;;;;;;;;;;;;53127;1254;1057887;-79
2024/01/25 11:57:43;;;;;;;;;;;;;;;;;;53106;1251;1005473;-81
2024/01/25 12:00:09;;;;;;;;;;;;;;;;;;53034;1254;1058668;-80
2024/01/25 12:02:36;;;;;;;;;;;;;;;;;;53026;1254;1005329;-80
2024/01/25 12:05:03;;;;;;;;;;;;;;;;;;53048;1251;1038587;-80
2024/01/25 12:07:29;;;;;;;;;;;;;;;;;;53039;1251;1004789;-79
2024/01/25 12:09:56;;;;;;;;;;;;;;;;;;53084;1251;1045916;-80
2024/01/25 12:12:22;;;;;;;;;;;;;;;;;;53068;1251;1004786;-79
2024/01/25 12:14:49;;;;;;;;;;;;;;;;;;53095;1251;1061180;-80
2024/01/25 12:17:15;;;;;;;;;;;;;;;;;;52999;1250;1003725;-80
2024/01/25 12:19:42;;;;;;;;;;;;;;;;;;52995;1251;1058176;-79
2024/01/25 12:22:08;;;;;;;;;;;;;;;;;;53016;1253;1005633;-81
2024/01/25 12:24:35;;;;;;;;;;;;;;;;;;53053;1251;1058238;-80
2024/01/25 12:27:01;;;;;;;;;;;;;;;;;;53357;1254;1004851;-80
2024/01/25 12:29:28;;;;;;;;;;;;;;;;;;53345;1253;1039301;-80
2024/01/25 12:31:54;;;;;;;;;;;;;;;;;;53255;1254;1004764;-80
2024/01/25 12:34:21;;;;;;;;;;;;;;;;;;53031;1251;1045235;-80
2024/01/25 12:36:47;;;;;;;;;;;;;;;;;;53081;1253;1005123;-81
2024/01/25 12:39:14;;;;;;;;;;;;;;;;;;53179;1251;1061114;-80
2024/01/25 12:41:41;;;;;;;;;;;;;;;;;;53081;1250;1003813;-79
2024/01/25 12:44:07;;;;;;;;;;;;;;;;;;53105;1251;1057921;-79
2024/01/25 12:46:33;;;;;;;;;;;;;;;;;;53016;1251;1003731;-80
2024/01/25 12:49:00;;;;;;;;;;;;;;;;;;53090;1251;1058395;-80
2024/01/25 12:51:26;;;;;;;;;;;;;;;;;;53039;1254;1005595;-80
2024/01/25 12:53:53;;;;;;;;;;;;;;;;;;53099;1251;1038450;-79
2024/01/25 12:56:19;;;;;;;;;;;;;;;;;;52982;1252;1005328;-80
2024/01/25 12:58:46;;;;;;;;;;;;;;;;;;53142;1251;1045370;-80
2024/01/25 13:01:12;;;;;;;;;;;;;;;;;;52953;1252;1003583;-80
2024/01/25 13:03:39;;;;;;;;;;;;;;;;;;52940;1252;1060290;-80
2024/01/25 13:06:05;;;;;;;;;;;;;;;;;;52970;1253;1004778;-79
2024/01/25 13:08:32;;;;;;;;;;;;;;;;;;53002;1251;1057566;-80
2024/01/25 13:10:59;;;;;;;;;;;;;;;;;;52982;1250;1005257;-80
2024/01/25 13:13:25;;;;;;;;;;;;;;;;;;52996;1252;1057940;-80
2024/01/25 13:15:52;;;;;;;;;;;;;;;;;;53020;1251;1006160;-80
2024/01/25 13:18:18;;;;;;;;;;;;;;;;;;53170;1253;1039395;-80
2024/01/25 13:20:45;;;;;;;;;;;;;;;;;;53657;1254;1004690;-81
2024/01/25 13:23:12;;;;;;;;;;;;;;;;;;53308;1253;1045408;-80
2024/01/25 13:25:38;;;;;;;;;;;;;;;;;;53352;1254;1003595;-79
2024/01/25 13:28:04;;;;;;;;;;;;;;;;;;53360;1251;1062268;-80
2024/01/25 13:30:31;;;;;;;;;;;;;;;;;;53119;1251;1005123;-80
2024/01/25 13:32:57;;;;;;;;;;;;;;;;;;53065;1254;1057211;-80
2024/01/25 13:35:24;;;;;;;;;;;;;;;;;;53066;1251;1004885;-80
2024/01/25 13:37:50;;;;;;;;;;;;;;;;;;53151;1255;1058831;-80
2024/01/25 13:40:17;;;;;;;;;;;;;;;;;;53019;1251;1004092;-80
2024/01/25 13:42:44;;;;;;;;;;;;;;;;;;53072;1253;1038531;-80
2024/01/25 13:45:10;;;;;;;;;;;;;;;;;;53064;1251;1005258;-80
2024/01/25 13:47:37;;;;;;;;;;;;;;;;;;53174;1253;1045475;-80
2024/01/25 13:50:04;;;;;;;;;;;;;;;;;;53060;1251;1005026;-79
2024/01/25 13:52:31;;;;;;;;;;;;;;;;;;53012;1252;1061544;-80
2024/01/25 13:54:57;;;;;;;;;;;;;;;;;;53049;1252;1005568;-80
2024/01/25 13:57:24;;;;;;;;;;;;;;;;;;53036;1252;1057043;-80
2024/01/25 13:59:51;;;;;;;;;;;;;;;;;;53065;1252;1005479;-80
2024/01/25 14:02:17;;;;;;;;;;;;;;;;;;53096;1253;1057983;-80
2024/01/25 14:04:44;;;;;;;;;;;;;;;;;;53031;1255;1005584;-80
2024/01/25 14:07:10;;;;;;;;;;;;;;;;;;53030;1255;1038221;-79
2024/01/25 14:09:37;;;;;;;;;;;;;;;;;;53123;1253;1005302;-81
2024/01/25 14:12:04;;;;;;;;;;;;;;;;;;53116;1251;1045780;-80
2024/01/25 14:14:30;;;;;;;;;;;;;;;;;;53160;1252;1003974;-80
2024/01/25 14:16:57;;;;;;;;;;;;;;;;;;53143;1251;1062050;-80
2024/01/25 14:19:23;;;;;;;;;;;;;;;;;;53182;1254;1005238;-80
2024/01/25 14:21:50;;;;;;;;;;;;;;;;;;53183;1251;1056344;-80
2024/01/25 14:24:17;;;;;;;;;;;;;;;;;;53163;1251;1005708;-81
2024/01/25 14:26:43;;;;;;;;;;;;;;;;;;53126;1251;1057926;-80
2024/01/25 14:29:10;;;;;;;;;;;;;;;;;;53160;1251;1004706;-80
2024/01/25 14:31:36;;;;;;;;;;;;;;;;;;53029;1251;1039335;-80
2024/01/25 14:34:03;;;;;;;;;;;;;;;;;;53068;1251;1005441;-81
2024/01/25 14:36:29;;;;;;;;;;;;;;;;;;53074;1251;1046876;-80
2024/01/25 14:38:56;;;;;;;;;;;;;;;;;;53200;1252;1003672;-80
2024/01/25 14:41:22;;;;;;;;;;;;;;;;;;53072;1251;1061330;-80
2024/01/25 14:43:49;;;;;;;;;;;;;;;;;;53103;1251;1005438;-80
2024/01/25 14:46:15;;;;;;;;;;;;;;;;;;53069;1251;1057293;-80
2024/01/25 14:48:42;;;;;;;;;;;;;;;;;;53196;1252;1004725;-80
2024/01/25 14:51:08;;;;;;;;;;;;;;;;;;53077;1254;1058266;-81
2024/01/25 14:53:35;;;;;;;;;;;;;;;;;;53067;1253;1004923;-80
2024/01/25 14:56:01;;;;;;;;;;;;;;;;;;53114;1251;1038426;-80
2024/01/25 14:58:29;;;;;;;;;;;;;;;;;;53247;1250;1005286;-80
2024/01/25 15:00:55;;;;;;;;;;;;;;;;;;53235;1251;1045770;-80
2024/01/25 15:03:22;;;;;;;;;;;;;;;;;;53161;1251;1005381;-80
2024/01/25 15:05:49;;;;;;;;;;;;;;;;;;53089;1251;1061416;-80
2024/01/25 15:08:16;;;;;;;;;;;;;;;;;;53180;1250;1005636;-80
2024/01/25 15:10:42;;;;;;;;;;;;;;;;;;53192;1254;1057136;-80
2024/01/25 15:13:09;;;;;;;;;;;;;;;;;;53129;1254;1003564;-80
2024/01/25 15:15:35;;;;;;;;;;;;;;;;;;53080;1253;1059341;-80
2024/01/25 15:18:02;;;;;;;;;;;;;;;;;;53144;1252;1004719;-80
2024/01/25 15:20:29;;;;;;;;;;;;;;;;;;53033;1254;1038003;-80
2024/01/25 15:23:00;;;;;;;;;;;;;;;;;;53109;1254;1005652;-80
2024/01/25 15:25:26;;;;;;;;;;;;;;;;;;53392;1253;1046464;-80
2024/01/25 15:27:53;;;;;;;;;;;;;;;;;;53410;1251;1005436;-80
2024/01/25 15:30:19;;;;;;;;;;;;;;;;;;53365;1251;1060671;-80
2024/01/25 15:32:46;;;;;;;;;;;;;;;;;;53080;1251;1005377;-80
2024/01/25 15:35:13;;;;;;;;;;;;;;;;;;53107;1251;1056604;-80
2024/01/25 15:37:41;;;;;;;;;;;;;;;;;;53034;1253;1005566;-80
2024/01/25 15:40:11;;;;;;;;;;;;;;;;;;53077;1251;1058583;-80
2024/01/25 15:42:38;;;;;;;;;;;;;;;;;;52968;1253;1058093;-80
2024/01/25 15:45:05;;;;;;;;;;;;;;;;;;52887;1252;1005363;-79
2024/01/25 15:47:32;;;;;;;;;;;;;;;;;;52939;1252;1038664;-79
2024/01/25 15:49:59;;;;;;;;;;;;;;;;;;52916;1251;1004607;-80
2024/01/25 15:52:25;;;;;;;;;;;;;;;;;;53107;1250;1045921;-80
2024/01/25 15:54:52;;;;;;;;;;;;;;;;;;53078;1251;1005534;-80
2024/01/25 15:57:18;;;;;;;;;;;;;;;;;;53068;1255;1060552;-80
2024/01/25 15:59:47;;;;;;;;;;;;;;;;;;53006;1251;1004959;-80
2024/01/25 16:02:13;;;;;;;;;;;;;;;;;;53167;1255;1057615;-80
2024/01/25 16:04:41;;;;;;;;;;;;;;;;;;53375;1253;1004957;-81
2024/01/25 16:07:08;;;;;;;;;;;;;;;;;;53632;1251;1057747;-80